createdAt,value
2019-06-08T00:00:05.290Z,65.94
2019-06-08T00:02:33.044Z,65.96
2019-06-08T00:05:00.931Z,66.55
2019-06-08T00:07:28.676Z,65.23
2019-06-08T00:09:56.457Z,65.60
2019-06-08T00:12:24.289Z,64.83
2019-06-08T00:14:52.099Z,64.83
2019-06-08T00:17:34.565Z,65.07
2019-06-08T00:19:49.543Z,65.04
2019-06-08T00:22:17.662Z,64.79
2019-06-08T00:24:45.605Z,63.96
2019-06-08T00:27:14.032Z,64.92
2019-06-08T00:29:42.035Z,64.23
2019-06-08T00:32:09.897Z,63.39
2019-06-08T00:34:37.690Z,63.35
2019-06-08T00:37:05.464Z,62.81
2019-06-08T00:39:33.266Z,62.95
2019-06-08T00:42:01.058Z,63.70
2019-06-08T00:44:28.800Z,64.05
2019-06-08T00:46:56.572Z,63.93
2019-06-08T00:49:24.734Z,64.16
2019-06-08T00:51:52.633Z,63.37
2019-06-08T00:54:21.545Z,63.08
2019-06-08T00:56:49.515Z,63.26
2019-06-08T00:59:17.920Z,63.45
2019-06-08T01:01:45.863Z,63.41
2019-06-08T01:04:13.630Z,63.78
2019-06-08T01:06:42.085Z,63.56
2019-06-08T01:09:09.879Z,63.20
2019-06-08T01:11:37.623Z,64.16
2019-06-08T01:14:05.426Z,63.63
2019-06-08T01:16:33.199Z,63.10
2019-06-08T01:19:00.991Z,62.94
2019-06-08T01:21:29.935Z,63.13
2019-06-08T01:23:57.974Z,62.38
2019-06-08T01:26:26.063Z,62.27
2019-06-08T01:28:53.922Z,62.42
2019-06-08T01:31:22.426Z,62.69
2019-06-08T01:33:50.304Z,63.20
2019-06-08T01:36:18.082Z,62.85
2019-06-08T01:38:45.812Z,63.01
2019-06-08T01:41:13.605Z,63.07
2019-06-08T01:43:41.429Z,63.52
2019-06-08T01:46:09.270Z,63.39
2019-06-08T01:48:37.032Z,63.89
2019-06-08T01:51:04.807Z,63.71
2019-06-08T01:53:33.006Z,63.95
2019-06-08T01:56:00.919Z,64.21
2019-06-08T01:58:29.492Z,64.90
2019-06-08T02:00:57.490Z,64.36
2019-06-08T02:03:26.309Z,65.89
2019-06-08T02:05:54.288Z,64.20
2019-06-08T02:08:22.027Z,63.75
2019-06-08T02:10:49.895Z,62.72
2019-06-08T02:13:17.706Z,62.74
2019-06-08T02:15:45.459Z,62.48
2019-06-08T02:18:13.226Z,62.39
2019-06-08T02:20:40.933Z,61.96
2019-06-08T02:23:08.794Z,61.83
2019-06-08T02:25:36.666Z,61.80
2019-06-08T02:28:04.488Z,61.16
2019-06-08T02:30:36.484Z,60.40
2019-06-08T02:33:03.907Z,60.72
2019-06-08T02:35:32.772Z,59.87
2019-06-08T02:38:01.183Z,60.00
2019-06-08T02:40:30.281Z,58.94
2019-06-08T02:42:58.587Z,58.20
2019-06-08T02:45:26.387Z,57.80
2019-06-08T02:47:54.137Z,57.26
2019-06-08T02:50:56.899Z,56.68
2019-06-08T02:53:26.134Z,56.02
2019-06-08T02:55:54.551Z,56.58
2019-06-08T02:58:22.381Z,56.81
2019-06-08T03:00:52.047Z,56.42
2019-06-08T03:03:19.955Z,56.50
2019-06-08T03:05:49.157Z,56.60
2019-06-08T03:08:19.251Z,56.37
2019-06-08T03:10:52.500Z,56.12
2019-06-08T03:13:22.562Z,56.38
2019-06-08T03:15:50.400Z,56.20
2019-06-08T03:18:18.281Z,57.07
2019-06-08T03:20:46.141Z,57.07
2019-06-08T03:23:13.889Z,56.84
2019-06-08T03:25:51.788Z,57.70
2019-06-08T03:28:11.355Z,57.43
2019-06-08T03:30:47.467Z,56.70
2019-06-08T03:33:10.680Z,57.04
2019-06-08T03:35:47.135Z,55.96
2019-06-08T03:38:08.121Z,56.44
2019-06-08T03:40:35.971Z,56.09
2019-06-08T03:43:04.014Z,56.21
2019-06-08T03:45:34.276Z,56.58
2019-06-08T03:48:02.254Z,56.26
2019-06-08T03:50:30.039Z,55.28
2019-06-08T03:52:57.974Z,55.54
2019-06-08T03:55:25.701Z,56.00
2019-06-08T03:57:53.462Z,55.70
2019-06-08T04:00:21.470Z,55.98
2019-06-08T04:02:51.092Z,55.77
2019-06-08T04:05:18.834Z,55.88
2019-06-08T04:07:46.654Z,54.91
2019-06-08T04:10:14.540Z,54.85
2019-06-08T04:12:44.072Z,55.05
2019-06-08T04:15:12.060Z,55.55
2019-06-08T04:17:39.893Z,55.33
2019-06-08T04:20:11.685Z,55.07
2019-06-08T04:22:44.717Z,54.68
2019-06-08T04:25:13.329Z,55.04
2019-06-08T04:27:42.229Z,53.90
2019-06-08T04:30:10.946Z,54.95
2019-06-08T04:32:40.178Z,53.93
2019-06-08T04:35:08.647Z,54.04
2019-06-08T04:37:38.018Z,53.79
2019-06-08T04:40:07.153Z,54.70
2019-06-08T04:42:34.911Z,54.09
2019-06-08T04:45:02.856Z,53.54
2019-06-08T04:47:30.600Z,53.24
2019-06-08T04:49:58.355Z,52.96
2019-06-08T04:52:26.125Z,53.01
2019-06-08T04:54:53.992Z,52.18
2019-06-08T04:57:21.736Z,51.12
2019-06-08T04:59:50.408Z,50.35
2019-06-08T05:02:18.334Z,50.08
2019-06-08T05:04:47.058Z,49.20
2019-06-08T05:07:15.084Z,49.58
2019-06-08T05:09:43.073Z,49.32
2019-06-08T05:12:10.821Z,49.92
2019-06-08T05:14:39.116Z,49.52
2019-06-08T05:17:07.044Z,49.27
2019-06-08T05:19:35.211Z,49.15
2019-06-08T05:22:03.346Z,49.49
2019-06-08T05:24:31.108Z,49.14
2019-06-08T05:26:58.868Z,49.44
2019-06-08T05:29:26.633Z,50.26
2019-06-08T05:31:54.378Z,49.08
2019-06-08T05:34:22.113Z,48.82
2019-06-08T05:36:50.167Z,48.24
2019-06-08T05:39:18.102Z,48.03
2019-06-08T05:41:45.937Z,48.73
2019-06-08T05:44:13.684Z,49.26
2019-06-08T05:46:41.768Z,47.79
2019-06-08T05:49:09.606Z,46.66
2019-06-08T05:51:37.360Z,46.66
2019-06-08T05:54:05.123Z,45.97
2019-06-08T05:56:32.889Z,45.96
2019-06-08T05:59:00.620Z,46.11
2019-06-08T06:01:28.448Z,45.94
2019-06-08T06:03:56.184Z,45.48
2019-06-08T06:06:23.968Z,46.19
2019-06-08T06:08:51.693Z,46.53
2019-06-08T06:11:19.478Z,46.28
2019-06-08T06:13:47.458Z,45.61
2019-06-08T06:16:15.358Z,46.34
2019-06-08T06:18:43.114Z,47.44
2019-06-08T06:21:12.469Z,48.32
2019-06-08T06:23:41.159Z,47.99
2019-06-08T06:26:09.036Z,47.97
2019-06-08T06:28:36.774Z,47.37
2019-06-08T06:31:04.649Z,46.68
2019-06-08T06:33:32.430Z,47.25
2019-06-08T06:36:00.219Z,46.57
2019-06-08T06:38:27.964Z,47.39
2019-06-08T06:40:55.723Z,47.46
2019-06-08T06:43:23.502Z,47.69
2019-06-08T06:45:52.149Z,47.99
2019-06-08T06:48:23.407Z,47.98
2019-06-08T06:50:50.457Z,47.16
2019-06-08T06:53:18.251Z,47.74
2019-06-08T06:55:46.930Z,46.42
2019-06-08T06:58:14.741Z,45.89
2019-06-08T07:00:43.260Z,45.54
2019-06-08T07:03:11.106Z,45.98
2019-06-08T07:05:38.877Z,44.47
2019-06-08T07:08:06.633Z,43.72
2019-06-08T07:10:34.474Z,43.65
2019-06-08T07:13:02.354Z,44.07
2019-06-08T07:15:30.233Z,44.18
2019-06-08T07:17:58.576Z,44.46
2019-06-08T07:20:26.544Z,45.30
2019-06-08T07:22:54.686Z,45.70
2019-06-08T07:25:22.489Z,45.37
2019-06-08T07:27:50.540Z,45.97
2019-06-08T07:30:18.409Z,46.78
2019-06-08T07:32:46.547Z,46.35
2019-06-08T07:35:15.386Z,45.52
2019-06-08T07:37:43.121Z,46.16
2019-06-08T07:40:10.866Z,47.05
2019-06-08T07:42:38.635Z,45.27
2019-06-08T07:45:07.104Z,45.00
2019-06-08T07:47:34.852Z,44.25
2019-06-08T07:50:04.783Z,44.28
2019-06-08T07:52:32.740Z,44.57
2019-06-08T07:55:00.507Z,45.36
2019-06-08T07:57:28.268Z,45.18
2019-06-08T07:59:56.403Z,45.28
2019-06-08T08:02:26.210Z,45.79
2019-06-08T08:04:54.602Z,46.19
2019-06-08T08:07:22.541Z,45.31
2019-06-08T08:09:50.605Z,44.93
2019-06-08T08:12:18.675Z,43.68
2019-06-08T08:14:46.427Z,43.66
2019-06-08T08:17:14.296Z,43.77
2019-06-08T08:19:42.039Z,42.44
2019-06-08T08:22:22.187Z,42.89
2019-06-08T08:24:39.544Z,43.82
2019-06-08T08:27:08.353Z,44.48
2019-06-08T08:29:38.236Z,45.44
2019-06-08T08:32:07.586Z,45.40
2019-06-08T08:34:38.016Z,45.56
2019-06-08T08:37:09.252Z,46.62
2019-06-08T08:39:37.502Z,45.60
2019-06-08T08:42:05.622Z,45.50
2019-06-08T08:44:33.510Z,46.17
2019-06-08T08:47:02.631Z,45.97
2019-06-08T08:49:30.831Z,45.43
2019-06-08T08:52:00.267Z,45.78
2019-06-08T08:54:29.748Z,45.56
2019-06-08T08:57:01.746Z,45.23
2019-06-08T08:59:28.046Z,44.98
2019-06-08T09:01:57.489Z,44.40
2019-06-08T09:04:27.639Z,42.98
2019-06-08T09:06:57.913Z,42.31
2019-06-08T09:09:25.119Z,42.61
2019-06-08T09:11:54.056Z,41.72
2019-06-08T09:14:22.903Z,41.65
2019-06-08T09:16:51.908Z,42.69
2019-06-08T09:19:20.954Z,42.81
2019-06-08T09:21:49.813Z,43.61
2019-06-08T09:24:18.681Z,43.73
2019-06-08T09:26:47.760Z,44.21
2019-06-08T09:29:15.707Z,44.13
2019-06-08T09:31:45.348Z,44.11
2019-06-08T09:34:15.432Z,43.17
2019-06-08T09:36:42.735Z,43.77
2019-06-08T09:39:12.982Z,43.72
2019-06-08T09:41:40.213Z,43.26
2019-06-08T09:44:08.693Z,44.13
2019-06-08T09:46:38.507Z,44.22
2019-06-08T09:49:09.315Z,44.12
2019-06-08T09:51:37.900Z,43.08
2019-06-08T09:54:08.692Z,43.84
2019-06-08T09:56:37.806Z,43.53
2019-06-08T09:59:10.040Z,43.73
2019-06-08T10:01:34.836Z,43.01
2019-06-08T10:04:04.091Z,43.02
2019-06-08T10:06:32.280Z,42.75
2019-06-08T10:09:00.741Z,43.15
2019-06-08T10:11:28.585Z,41.91
2019-06-08T10:13:59.008Z,42.78
2019-06-08T10:16:27.909Z,43.17
2019-06-08T10:18:57.644Z,43.88
2019-06-08T10:21:28.202Z,43.35
2019-06-08T10:23:58.288Z,43.02
2019-06-08T10:26:24.853Z,42.85
2019-06-08T10:28:53.411Z,42.82
2019-06-08T10:31:35.716Z,43.54
2019-06-08T10:33:50.853Z,43.78
2019-06-08T10:36:18.649Z,43.61
2019-06-08T10:38:47.947Z,43.29
2019-06-08T10:41:18.995Z,42.99
2019-06-08T10:43:48.058Z,43.11
2019-06-08T10:46:19.948Z,43.42
2019-06-08T10:48:45.100Z,43.57
2019-06-08T10:51:13.253Z,43.09
2019-06-08T10:53:52.656Z,43.73
2019-06-08T10:56:12.341Z,43.27
2019-06-08T10:58:40.357Z,43.56
2019-06-08T11:01:12.105Z,42.84
2019-06-08T11:03:38.834Z,43.35
2019-06-08T11:06:11.369Z,42.83
2019-06-08T11:08:38.862Z,42.33
2019-06-08T11:11:09.825Z,41.93
2019-06-08T11:13:35.859Z,42.39
2019-06-08T11:16:05.347Z,42.35
2019-06-08T11:18:33.284Z,41.16
2019-06-08T11:21:02.504Z,41.56
2019-06-08T11:23:30.844Z,41.09
2019-06-08T11:26:03.448Z,40.96
2019-06-08T11:28:28.473Z,41.09
2019-06-08T11:30:56.442Z,41.42
2019-06-08T11:33:24.220Z,40.69
2019-06-08T11:35:52.030Z,42.16
2019-06-08T11:38:20.296Z,41.73
2019-06-08T11:40:48.290Z,42.70
2019-06-08T11:43:18.195Z,43.17
2019-06-08T11:45:47.917Z,43.28
2019-06-08T11:48:18.050Z,43.24
2019-06-08T11:50:45.254Z,43.79
2019-06-08T11:53:14.833Z,43.11
2019-06-08T11:55:43.302Z,43.40
2019-06-08T11:58:13.631Z,43.52
2019-06-08T12:01:03.291Z,42.83
2019-06-08T12:03:31.001Z,42.50
2019-06-08T12:05:58.770Z,42.97
2019-06-08T12:08:28.401Z,42.90
2019-06-08T12:11:01.193Z,42.28
2019-06-08T12:13:27.781Z,42.45
2019-06-08T12:15:55.590Z,42.77
2019-06-08T12:18:24.807Z,41.66
2019-06-08T12:20:52.626Z,42.32
2019-06-08T12:23:20.425Z,42.21
2019-06-08T12:25:48.220Z,42.89
2019-06-08T12:28:17.995Z,41.88
2019-06-08T12:30:47.881Z,42.40
2019-06-08T12:33:15.596Z,42.21
2019-06-08T12:35:43.958Z,42.54
2019-06-08T12:38:13.015Z,42.14
2019-06-08T12:40:41.510Z,42.76
2019-06-08T12:43:11.357Z,41.16
2019-06-08T12:45:38.961Z,40.57
2019-06-08T12:48:08.854Z,41.27
2019-06-08T12:50:38.675Z,41.59
2019-06-08T12:53:10.315Z,40.74
2019-06-08T12:55:37.719Z,40.31
2019-06-08T12:58:08.111Z,41.09
2019-06-08T13:00:37.807Z,40.64
2019-06-08T13:03:05.023Z,40.79
2019-06-08T13:05:32.766Z,41.71
2019-06-08T13:08:00.549Z,41.82
2019-06-08T13:10:28.304Z,41.28
2019-06-08T13:12:58.202Z,41.41
2019-06-08T13:15:28.217Z,40.91
2019-06-08T13:17:55.384Z,40.97
2019-06-08T13:20:23.151Z,40.62
2019-06-08T13:22:50.904Z,39.70
2019-06-08T13:25:31.953Z,39.25
2019-06-08T13:27:48.403Z,39.96
2019-06-08T13:30:19.737Z,40.44
2019-06-08T13:32:48.278Z,39.79
2019-06-08T13:35:19.134Z,39.95
2019-06-08T13:37:47.658Z,40.18
2019-06-08T13:40:18.582Z,39.97
2019-06-08T13:42:45.481Z,39.97
2019-06-08T13:45:16.243Z,38.78
2019-06-08T13:47:44.775Z,39.30
2019-06-08T13:50:13.053Z,38.53
2019-06-08T13:52:43.042Z,38.66
2019-06-08T13:55:29.915Z,38.17
2019-06-08T13:57:43.762Z,39.57
2019-06-08T14:00:11.752Z,39.32
2019-06-08T14:02:39.910Z,39.97
2019-06-08T14:05:10.640Z,39.62
2019-06-08T14:07:38.441Z,39.59
2019-06-08T14:10:06.893Z,39.28
2019-06-08T14:12:34.679Z,39.32
2019-06-08T14:15:02.811Z,39.01
2019-06-08T14:17:30.577Z,38.77
2019-06-08T14:19:59.250Z,38.99
2019-06-08T14:22:28.913Z,39.40
2019-06-08T14:24:57.005Z,38.80
2019-06-08T14:27:25.527Z,39.09
2019-06-08T14:29:55.249Z,39.35
2019-06-08T14:32:23.928Z,38.90
2019-06-08T14:34:53.603Z,40.02
2019-06-08T14:37:21.408Z,39.72
2019-06-08T14:39:49.565Z,39.35
2019-06-08T14:42:23.257Z,38.88
2019-06-08T14:44:47.672Z,39.29
2019-06-08T14:47:15.537Z,39.28
2019-06-08T14:49:44.968Z,40.03
2019-06-08T14:52:13.127Z,40.89
2019-06-08T14:54:40.860Z,40.36
2019-06-08T14:57:08.643Z,40.51
2019-06-08T14:59:37.673Z,40.47
2019-06-08T15:02:07.642Z,40.54
2019-06-08T15:04:39.966Z,40.52
2019-06-08T15:07:09.575Z,40.46
2019-06-08T15:09:37.716Z,40.71
2019-06-08T15:12:10.081Z,41.06
2019-06-08T15:14:38.567Z,40.12
2019-06-08T15:17:08.467Z,39.34
2019-06-08T15:19:37.967Z,38.67
2019-06-08T15:22:08.813Z,39.98
2019-06-08T15:24:37.640Z,39.68
2019-06-08T15:27:07.734Z,40.08
2019-06-08T15:29:35.032Z,39.48
2019-06-08T15:32:02.748Z,38.92
2019-06-08T15:34:32.742Z,39.35
2019-06-08T15:37:00.451Z,40.13
2019-06-08T15:39:31.787Z,40.32
2019-06-08T15:42:00.106Z,40.21
2019-06-08T15:44:30.401Z,39.64
2019-06-08T15:46:58.690Z,40.03
2019-06-08T15:49:29.015Z,40.14
2019-06-08T15:51:57.895Z,39.14
2019-06-08T15:54:29.018Z,38.67
2019-06-08T15:56:55.527Z,38.82
2019-06-08T15:59:23.320Z,40.10
2019-06-08T16:01:51.096Z,39.74
2019-06-08T16:04:18.934Z,39.58
2019-06-08T16:06:46.735Z,39.14
2019-06-08T16:09:14.563Z,38.77
2019-06-08T16:11:42.315Z,39.21
2019-06-08T16:14:10.079Z,39.64
2019-06-08T16:16:37.836Z,38.93
2019-06-08T16:19:05.602Z,38.52
2019-06-08T16:21:34.298Z,39.11
2019-06-08T16:24:02.184Z,38.40
2019-06-08T16:26:29.959Z,38.51
2019-06-08T16:28:57.768Z,38.60
2019-06-08T16:31:26.892Z,38.64
2019-06-08T16:33:54.851Z,38.84
2019-06-08T16:36:22.642Z,39.15
2019-06-08T16:38:52.843Z,38.92
2019-06-08T16:41:20.040Z,39.06
2019-06-08T16:43:47.772Z,38.76
2019-06-08T16:46:15.576Z,39.16
2019-06-08T16:48:45.131Z,38.70
2019-06-08T16:51:12.923Z,38.61
2019-06-08T16:53:40.658Z,39.31
2019-06-08T16:56:08.448Z,39.51
2019-06-08T16:58:36.263Z,39.64
2019-06-08T17:01:04.364Z,39.50
2019-06-08T17:03:32.845Z,39.47
2019-06-08T17:06:00.765Z,38.72
2019-06-08T17:08:29.455Z,38.68
2019-06-08T17:10:57.277Z,39.29
2019-06-08T17:13:25.016Z,39.69
2019-06-08T17:15:52.856Z,39.45
2019-06-08T17:18:20.596Z,38.84
2019-06-08T17:20:48.330Z,38.86
2019-06-08T17:23:16.123Z,39.23
2019-06-08T17:25:43.862Z,38.54
2019-06-08T17:28:11.606Z,38.29
2019-06-08T17:30:39.528Z,38.83
2019-06-08T17:33:07.589Z,39.33
2019-06-08T17:35:35.643Z,39.71
2019-06-08T17:38:03.606Z,37.85
2019-06-08T17:40:31.972Z,37.70
2019-06-08T17:42:59.880Z,37.94
2019-06-08T17:45:27.684Z,39.00
2019-06-08T17:47:55.607Z,38.60
2019-06-08T17:50:23.333Z,39.03
2019-06-08T17:52:51.111Z,38.54
2019-06-08T17:55:18.871Z,38.31
2019-06-08T17:57:53.219Z,38.45
2019-06-08T18:00:16.739Z,38.06
2019-06-08T18:02:45.393Z,38.15
2019-06-08T18:05:13.671Z,37.71
2019-06-08T18:07:43.833Z,38.44
2019-06-08T18:10:11.101Z,38.52
2019-06-08T18:12:42.534Z,38.47
2019-06-08T18:15:09.209Z,38.69
2019-06-08T18:17:40.785Z,39.16
2019-06-08T18:20:11.660Z,39.40
2019-06-08T18:22:42.821Z,39.97
2019-06-08T18:25:09.510Z,40.31
2019-06-08T18:27:40.453Z,40.20
2019-06-08T18:30:08.950Z,39.16
2019-06-08T18:32:40.197Z,38.59
2019-06-08T18:35:07.793Z,38.69
2019-06-08T18:37:38.122Z,39.13
2019-06-08T18:40:07.405Z,39.69
2019-06-08T18:42:35.980Z,39.69
2019-06-08T18:45:07.401Z,39.70
2019-06-08T18:47:37.860Z,39.53
2019-06-08T18:50:08.799Z,38.85
2019-06-08T18:52:39.865Z,39.12
2019-06-08T18:55:08.172Z,38.85
2019-06-08T18:57:35.469Z,39.00
2019-06-08T19:00:09.234Z,39.31
2019-06-08T19:02:34.330Z,39.15
2019-06-08T19:05:02.110Z,39.59
2019-06-08T19:07:30.998Z,39.69
2019-06-08T19:10:00.827Z,39.92
2019-06-08T19:12:28.559Z,39.88
2019-06-08T19:14:58.560Z,39.96
2019-06-08T19:17:28.439Z,39.91
2019-06-08T19:19:58.012Z,40.66
2019-06-08T19:22:29.932Z,40.42
2019-06-08T19:24:56.048Z,40.97
2019-06-08T19:27:23.856Z,40.64
2019-06-08T19:29:51.951Z,41.42
2019-06-08T19:32:19.844Z,41.09
2019-06-08T19:34:53.665Z,40.79
2019-06-08T19:37:19.206Z,41.77
2019-06-08T19:39:48.236Z,41.72
2019-06-08T19:42:17.560Z,42.24
2019-06-08T19:44:57.588Z,41.88
2019-06-08T19:47:17.155Z,42.52
2019-06-08T19:49:44.870Z,42.31
2019-06-08T19:52:12.651Z,41.98
2019-06-08T19:54:43.653Z,42.19
2019-06-08T19:57:10.185Z,42.58
2019-06-08T19:59:39.458Z,42.91
2019-06-08T20:02:08.816Z,43.11
2019-06-08T20:04:38.788Z,43.26
2019-06-08T20:07:08.728Z,43.75
2019-06-08T20:09:37.631Z,44.34
2019-06-08T20:12:07.639Z,43.50
2019-06-08T20:14:37.336Z,43.58
2019-06-08T20:17:05.121Z,44.29
2019-06-08T20:19:32.894Z,44.12
2019-06-08T20:22:00.646Z,45.01
2019-06-08T20:24:28.434Z,44.64
2019-06-08T20:26:56.290Z,45.13
2019-06-08T20:29:24.080Z,45.23
2019-06-08T20:31:51.839Z,45.41
2019-06-08T20:34:19.626Z,45.51
2019-06-08T20:36:48.623Z,45.59
2019-06-08T20:39:19.450Z,46.23
2019-06-08T20:41:48.938Z,46.10
2019-06-08T20:44:16.923Z,46.22
2019-06-08T20:46:44.684Z,46.67
2019-06-08T20:49:12.541Z,46.78
2019-06-08T20:51:40.265Z,46.66
2019-06-08T20:54:08.184Z,47.05
2019-06-08T20:56:37.695Z,46.84
2019-06-08T20:59:08.025Z,47.19
2019-06-08T21:01:35.152Z,47.34
2019-06-08T21:04:03.131Z,48.75
2019-06-08T21:06:30.865Z,48.64
2019-06-08T21:08:59.943Z,48.51
2019-06-08T21:11:29.632Z,48.39
2019-06-08T21:13:59.211Z,48.75
2019-06-08T21:16:27.658Z,48.99
2019-06-08T21:18:57.912Z,49.03
2019-06-08T21:21:28.107Z,49.52
2019-06-08T21:24:00.577Z,49.60
2019-06-08T21:26:25.410Z,49.76
2019-06-08T21:28:55.546Z,49.62
2019-06-08T21:31:22.830Z,50.05
2019-06-08T21:33:52.227Z,50.05
2019-06-08T21:36:20.311Z,50.21
2019-06-08T21:38:51.700Z,50.32
2019-06-08T21:41:17.854Z,50.05
2019-06-08T21:43:48.908Z,50.14
2019-06-08T21:46:16.564Z,50.46
2019-06-08T21:48:44.344Z,50.89
2019-06-08T21:51:13.237Z,50.36
2019-06-08T21:53:40.947Z,50.68
2019-06-08T21:56:10.528Z,50.67
2019-06-08T21:58:38.293Z,50.74
2019-06-08T22:01:07.363Z,50.94
2019-06-08T22:03:37.910Z,51.51
2019-06-08T22:06:07.917Z,50.83
2019-06-08T22:08:37.591Z,51.27
2019-06-08T22:11:08.324Z,50.61
2019-06-08T22:13:37.222Z,50.70
2019-06-08T22:16:07.747Z,51.19
2019-06-08T22:18:34.759Z,51.34
2019-06-08T22:21:03.637Z,51.57
2019-06-08T22:23:31.518Z,51.81
2019-06-08T22:26:00.766Z,51.90
2019-06-08T22:28:28.942Z,51.06
2019-06-08T22:31:00.172Z,51.51
2019-06-08T22:33:28.096Z,51.69
2019-06-08T22:35:58.579Z,51.79
2019-06-08T22:38:27.678Z,51.51
2019-06-08T22:40:57.652Z,51.77
2019-06-08T22:43:25.248Z,51.09
2019-06-08T22:45:54.311Z,51.08
2019-06-08T22:48:22.267Z,50.72
2019-06-08T22:50:50.036Z,51.13
2019-06-08T22:53:17.817Z,51.34
2019-06-08T22:55:47.508Z,51.14
2019-06-08T22:58:18.765Z,52.01
2019-06-08T23:00:52.134Z,52.31
2019-06-08T23:03:18.442Z,52.53
2019-06-08T23:05:47.668Z,53.21
2019-06-08T23:08:17.575Z,53.40
2019-06-08T23:10:45.398Z,53.77
2019-06-08T23:13:13.262Z,54.21
2019-06-08T23:15:41.054Z,54.56
2019-06-08T23:18:09.394Z,55.17
2019-06-08T23:20:37.574Z,55.49
2019-06-08T23:23:08.581Z,55.73
2019-06-08T23:25:37.267Z,55.57
2019-06-08T23:28:09.087Z,55.84
2019-06-08T23:30:38.287Z,55.60
2019-06-08T23:33:11.065Z,55.55
2019-06-08T23:35:47.915Z,55.59
2019-06-08T23:38:08.042Z,55.49
2019-06-08T23:40:37.715Z,55.29
2019-06-08T23:43:05.929Z,55.58
2019-06-08T23:45:33.903Z,55.96
2019-06-08T23:48:02.836Z,56.39
2019-06-08T23:50:30.701Z,56.57
2019-06-08T23:52:59.638Z,56.90
2019-06-08T23:55:28.239Z,57.05
2019-06-08T23:57:56.026Z,58.15
